createdAt,value
2022-10-25T00:00:16.777Z,344
2022-10-25T00:01:15.981Z,350
2022-10-25T00:02:16.806Z,352
2022-10-25T00:03:17.715Z,348
2022-10-25T00:04:16.612Z,347
2022-10-25T00:05:16.755Z,349
2022-10-25T00:06:16.673Z,350
2022-10-25T00:07:16.968Z,354
2022-10-25T00:08:15.863Z,364
2022-10-25T00:09:16.460Z,332
2022-10-25T00:10:20.082Z,355
2022-10-25T00:11:16.828Z,362
2022-10-25T00:12:15.873Z,347
2022-10-25T00:13:16.938Z,356
2022-10-25T00:14:16.416Z,350
2022-10-25T00:16:16.727Z,348
2022-10-25T00:17:16.628Z,351
2022-10-25T00:18:16.582Z,353
2022-10-25T00:19:16.884Z,356
2022-10-25T00:20:16.310Z,363
2022-10-25T00:21:17.360Z,356
2022-10-25T00:22:16.875Z,350
2022-10-25T00:23:16.540Z,345
2022-10-25T00:24:21.525Z,347
2022-10-25T00:25:16.765Z,348
2022-10-25T00:26:16.084Z,339
2022-10-25T00:27:17.892Z,383
2022-10-25T00:28:17.011Z,364
2022-10-25T00:29:16.507Z,355
2022-10-25T00:30:17.154Z,356
2022-10-25T00:31:17.278Z,348
2022-10-25T00:32:16.649Z,343
2022-10-25T00:33:17.004Z,332
2022-10-25T00:34:16.324Z,331
2022-10-25T00:35:21.624Z,340
2022-10-25T00:36:17.275Z,355
2022-10-25T00:37:16.880Z,353
2022-10-25T00:38:16.231Z,346
2022-10-25T00:39:17.752Z,347
2022-10-25T00:40:17.234Z,346
2022-10-25T00:41:17.734Z,359
2022-10-25T00:42:16.889Z,356
2022-10-25T00:43:16.869Z,349
2022-10-25T00:44:16.786Z,344
2022-10-25T00:45:17.338Z,359
2022-10-25T00:46:17.226Z,336
2022-10-25T00:47:17.228Z,345
2022-10-25T00:49:17.062Z,341
2022-10-25T00:50:16.434Z,353
2022-10-25T00:51:17.808Z,360
2022-10-25T00:52:18.038Z,358
2022-10-25T00:53:17.494Z,352
2022-10-25T00:54:17.581Z,351
2022-10-25T00:55:17.419Z,353
2022-10-25T00:56:17.165Z,358
2022-10-25T00:57:17.476Z,353
2022-10-25T00:58:20.147Z,343
2022-10-25T00:59:17.550Z,347
2022-10-25T01:00:17.825Z,360
2022-10-25T01:01:17.592Z,356
2022-10-25T01:02:18.309Z,350
2022-10-25T01:03:17.690Z,343
2022-10-25T01:04:16.685Z,367
2022-10-25T01:05:17.425Z,360
2022-10-25T01:06:17.176Z,359
2022-10-25T01:07:21.289Z,348
2022-10-25T01:08:17.286Z,347
2022-10-25T01:09:17.508Z,361
2022-10-25T01:10:16.384Z,358
2022-10-25T01:12:16.929Z,356
2022-10-25T01:13:17.276Z,354
2022-10-25T01:14:21.617Z,351
2022-10-25T01:15:16.411Z,361
2022-10-25T01:16:16.957Z,355
2022-10-25T01:17:17.413Z,349
2022-10-25T01:18:17.140Z,345
2022-10-25T01:19:18.109Z,340
2022-10-25T01:20:17.143Z,344
2022-10-25T01:21:17.549Z,341
2022-10-25T01:22:17.893Z,345
2022-10-25T01:23:30.331Z,322
2022-10-25T01:24:17.520Z,341
2022-10-25T01:25:18.355Z,342
2022-10-25T01:26:16.924Z,343
2022-10-25T01:27:17.216Z,353
2022-10-25T01:28:17.895Z,354
2022-10-25T01:29:18.357Z,359
2022-10-25T01:31:18.505Z,348
2022-10-25T01:32:17.328Z,354
2022-10-25T01:33:17.877Z,358
2022-10-25T01:34:17.329Z,354
2022-10-25T01:35:18.578Z,340
2022-10-25T01:36:17.461Z,342
2022-10-25T01:37:17.694Z,350
2022-10-25T01:38:18.665Z,354
2022-10-25T01:39:18.246Z,352
2022-10-25T01:40:17.174Z,348
2022-10-25T01:41:17.693Z,347
2022-10-25T01:42:17.504Z,364
2022-10-25T01:43:17.492Z,359
2022-10-25T01:44:18.665Z,347
2022-10-25T01:45:18.332Z,344
2022-10-25T01:46:17.114Z,334
2022-10-25T01:47:18.500Z,339
2022-10-25T01:48:17.996Z,340
2022-10-25T01:49:17.201Z,350
2022-10-25T01:51:17.210Z,357
2022-10-25T01:52:17.870Z,358
2022-10-25T01:53:18.129Z,361
2022-10-25T01:54:17.228Z,353
2022-10-25T01:55:18.518Z,347
2022-10-25T01:56:18.108Z,348
2022-10-25T01:57:17.784Z,345
2022-10-25T01:58:17.437Z,352
2022-10-25T02:00:16.695Z,374
2022-10-25T02:01:18.804Z,367
2022-10-25T02:02:17.290Z,365
2022-10-25T02:04:18.520Z,356
2022-10-25T02:05:17.573Z,342
2022-10-25T02:06:21.863Z,347
2022-10-25T02:07:16.963Z,348
2022-10-25T02:08:16.795Z,347
2022-10-25T02:09:19.232Z,361
2022-10-25T02:10:21.826Z,363
2022-10-25T02:11:16.898Z,360
2022-10-25T02:12:17.897Z,361
2022-10-25T02:13:21.900Z,353
2022-10-25T02:14:16.661Z,349
2022-10-25T02:15:17.904Z,356
2022-10-25T02:16:16.372Z,360
2022-10-25T02:17:17.897Z,351
2022-10-25T02:18:17.120Z,332
2022-10-25T02:19:17.579Z,390
2022-10-25T02:20:18.837Z,345
2022-10-25T02:21:18.888Z,342
2022-10-25T02:22:17.075Z,348
2022-10-25T02:23:18.381Z,361
2022-10-25T02:24:16.941Z,354
2022-10-25T02:25:16.942Z,349
2022-10-25T02:27:17.324Z,346
2022-10-25T02:28:17.314Z,347
2022-10-25T02:29:17.865Z,357
2022-10-25T02:30:18.747Z,358
2022-10-25T02:31:18.620Z,352
2022-10-25T02:32:17.487Z,350
2022-10-25T02:33:16.888Z,360
2022-10-25T02:34:16.454Z,351
2022-10-25T02:35:20.379Z,354
2022-10-25T02:36:16.712Z,345
2022-10-25T02:37:18.052Z,357
2022-10-25T02:38:17.067Z,321
2022-10-25T02:39:16.798Z,327
2022-10-25T02:40:18.515Z,339
2022-10-25T02:41:16.926Z,346
2022-10-25T02:42:16.940Z,339
2022-10-25T02:43:17.563Z,345
2022-10-25T02:44:17.378Z,353
2022-10-25T02:45:16.869Z,364
2022-10-25T02:46:19.145Z,359
2022-10-25T02:47:17.020Z,364
2022-10-25T02:48:16.653Z,355
2022-10-25T02:49:17.243Z,349
2022-10-25T02:50:17.047Z,350
2022-10-25T02:51:17.806Z,351
2022-10-25T02:52:17.481Z,359
2022-10-25T02:53:17.299Z,353
2022-10-25T02:54:15.877Z,345
2022-10-25T02:55:18.528Z,331
2022-10-25T02:56:17.510Z,376
2022-10-25T02:57:16.692Z,363
2022-10-25T02:58:15.947Z,359
2022-10-25T02:59:17.027Z,361
2022-10-25T03:00:16.383Z,359
2022-10-25T03:01:17.891Z,356
2022-10-25T03:02:16.581Z,358
2022-10-25T03:03:17.017Z,361
2022-10-25T03:04:16.525Z,367
2022-10-25T03:05:16.323Z,362
2022-10-25T03:06:17.214Z,364
2022-10-25T03:07:17.372Z,355
2022-10-25T03:08:16.591Z,352
2022-10-25T03:09:17.230Z,353
2022-10-25T03:10:16.795Z,351
2022-10-25T03:11:16.374Z,356
2022-10-25T03:13:17.076Z,359
2022-10-25T03:14:16.081Z,344
2022-10-25T03:15:16.946Z,350
2022-10-25T03:16:16.033Z,343
2022-10-25T03:17:16.633Z,353
2022-10-25T03:18:18.587Z,350
2022-10-25T03:19:16.770Z,355
2022-10-25T03:20:16.069Z,353
2022-10-25T03:21:17.245Z,364
2022-10-25T03:22:16.162Z,369
2022-10-25T03:23:17.061Z,360
2022-10-25T03:24:16.356Z,345
2022-10-25T03:25:16.815Z,354
2022-10-25T03:26:16.448Z,352
2022-10-25T03:27:16.399Z,357
2022-10-25T03:28:16.138Z,362
2022-10-25T03:29:16.694Z,354
2022-10-25T03:30:16.494Z,344
2022-10-25T03:31:16.647Z,347
2022-10-25T03:32:16.604Z,352
2022-10-25T03:33:16.706Z,351
2022-10-25T03:34:16.736Z,349
2022-10-25T03:35:16.664Z,354
2022-10-25T03:36:16.949Z,357
2022-10-25T03:38:16.063Z,362
2022-10-25T03:40:17.211Z,352
2022-10-25T03:41:17.216Z,348
2022-10-25T03:42:20.971Z,351
2022-10-25T03:43:17.259Z,350
2022-10-25T03:44:16.988Z,356
2022-10-25T03:45:20.694Z,353
2022-10-25T03:47:16.775Z,358
2022-10-25T03:48:16.090Z,353
2022-10-25T03:49:17.293Z,344
2022-10-25T03:50:16.559Z,338
2022-10-25T03:51:17.126Z,343
2022-10-25T03:53:16.166Z,355
2022-10-25T03:54:17.119Z,353
2022-10-25T03:55:17.143Z,362
2022-10-25T03:56:16.419Z,360
2022-10-25T03:57:19.251Z,353
2022-10-25T03:59:17.290Z,350
2022-10-25T04:00:17.196Z,356
2022-10-25T04:01:16.812Z,363
2022-10-25T04:02:18.600Z,367
2022-10-25T04:03:16.851Z,358
2022-10-25T04:04:16.928Z,362
2022-10-25T04:05:17.141Z,357
2022-10-25T04:06:17.215Z,355
2022-10-25T04:07:16.846Z,359
2022-10-25T04:08:21.098Z,355
2022-10-25T04:09:17.383Z,349
2022-10-25T04:10:17.613Z,345
2022-10-25T04:11:17.234Z,350
2022-10-25T04:12:16.379Z,385
2022-10-25T04:13:17.538Z,364
2022-10-25T04:14:18.163Z,372
2022-10-25T04:15:17.070Z,362
2022-10-25T04:16:23.690Z,370
2022-10-25T04:17:17.206Z,367
2022-10-25T04:18:17.437Z,361
2022-10-25T04:20:17.200Z,365
2022-10-25T04:21:16.974Z,361
2022-10-25T04:22:17.356Z,362
2022-10-25T04:23:17.602Z,346
2022-10-25T04:24:16.644Z,348
2022-10-25T04:25:18.145Z,355
2022-10-25T04:26:17.601Z,364
2022-10-25T04:27:17.978Z,365
2022-10-25T04:28:17.881Z,355
2022-10-25T04:29:17.457Z,356
2022-10-25T04:30:17.229Z,360
2022-10-25T04:31:17.780Z,355
2022-10-25T04:32:17.491Z,358
2022-10-25T04:33:17.154Z,357
2022-10-25T04:34:17.603Z,347
2022-10-25T04:35:17.485Z,352
2022-10-25T04:36:17.334Z,357
2022-10-25T04:37:18.181Z,352
2022-10-25T04:38:17.587Z,361
2022-10-25T04:39:17.209Z,360
2022-10-25T04:40:22.588Z,357
2022-10-25T04:41:17.425Z,351
2022-10-25T04:42:18.102Z,355
2022-10-25T04:43:18.653Z,357
2022-10-25T04:44:17.565Z,361
2022-10-25T04:45:18.294Z,355
2022-10-25T04:47:17.386Z,361
2022-10-25T04:48:22.082Z,359
2022-10-25T04:49:18.394Z,344
2022-10-25T04:50:17.043Z,370
2022-10-25T04:51:18.024Z,348
2022-10-25T04:52:17.491Z,345
2022-10-25T04:53:17.492Z,349
2022-10-25T04:54:17.779Z,358
2022-10-25T04:55:17.357Z,367
2022-10-25T04:56:19.566Z,365
2022-10-25T04:57:18.155Z,358
2022-10-25T04:58:17.299Z,349
2022-10-25T04:59:18.484Z,358
2022-10-25T05:00:17.735Z,357
2022-10-25T05:01:18.201Z,358
2022-10-25T05:02:17.716Z,347
2022-10-25T05:03:18.698Z,339
2022-10-25T05:04:17.235Z,348
2022-10-25T05:05:17.786Z,352
2022-10-25T05:06:17.695Z,353
2022-10-25T05:07:17.120Z,349
2022-10-25T05:08:17.858Z,358
2022-10-25T05:09:18.568Z,348
2022-10-25T05:10:17.219Z,358
2022-10-25T05:11:18.490Z,357
2022-10-25T05:12:17.436Z,353
2022-10-25T05:13:17.032Z,355
2022-10-25T05:14:18.290Z,346
2022-10-25T05:15:17.424Z,359
2022-10-25T05:16:16.818Z,360
2022-10-25T05:17:19.544Z,342
2022-10-25T05:18:17.841Z,351
2022-10-25T05:19:18.850Z,355
2022-10-25T05:20:17.870Z,350
2022-10-25T05:21:18.249Z,352
2022-10-25T05:22:18.668Z,344
2022-10-25T05:24:17.361Z,351
2022-10-25T05:25:18.744Z,356
2022-10-25T05:26:17.897Z,354
2022-10-25T05:27:17.107Z,337
2022-10-25T05:28:17.370Z,383
2022-10-25T05:29:18.306Z,382
2022-10-25T05:30:17.045Z,379
2022-10-25T05:31:18.005Z,366
2022-10-25T05:32:16.788Z,363
2022-10-25T05:34:18.225Z,355
2022-10-25T05:35:16.823Z,352
2022-10-25T05:36:16.022Z,366
2022-10-25T05:37:17.433Z,362
2022-10-25T05:39:17.283Z,370
2022-10-25T05:40:17.488Z,368
2022-10-25T05:41:22.395Z,364
2022-10-25T05:42:16.345Z,369
2022-10-25T05:43:17.230Z,365
2022-10-25T05:44:16.426Z,366
2022-10-25T05:45:17.943Z,352
2022-10-25T05:46:16.538Z,370
2022-10-25T05:47:16.653Z,357
2022-10-25T05:49:16.779Z,363
2022-10-25T05:50:16.543Z,365
2022-10-25T05:51:37.172Z,359
2022-10-25T05:52:16.012Z,368
2022-10-25T05:53:16.425Z,365
2022-10-25T05:54:16.918Z,366
2022-10-25T05:55:16.591Z,362
2022-10-25T05:56:15.580Z,363
2022-10-25T05:57:22.068Z,359
2022-10-25T05:58:15.797Z,352
2022-10-25T05:59:17.580Z,358
2022-10-25T06:00:16.394Z,363
2022-10-25T06:01:16.769Z,362
2022-10-25T06:02:17.151Z,365
2022-10-25T06:03:16.927Z,372
2022-10-25T06:04:16.434Z,369
2022-10-25T06:05:17.471Z,367
2022-10-25T06:06:17.059Z,364
2022-10-25T06:07:15.455Z,370
2022-10-25T06:08:17.111Z,372
2022-10-25T06:09:16.897Z,370
2022-10-25T06:10:16.832Z,372
2022-10-25T06:11:16.985Z,367
2022-10-25T06:12:17.675Z,366
2022-10-25T06:13:17.064Z,365
2022-10-25T06:14:16.681Z,368
2022-10-25T06:15:16.471Z,361
2022-10-25T06:16:17.402Z,358
2022-10-25T06:18:16.480Z,372
2022-10-25T06:19:17.610Z,366
2022-10-25T06:20:18.251Z,367
2022-10-25T06:21:16.757Z,373
2022-10-25T06:22:17.341Z,378
2022-10-25T06:23:16.831Z,361
2022-10-25T06:24:15.201Z,421
2022-10-25T06:25:16.954Z,377
2022-10-25T06:26:16.618Z,370
2022-10-25T06:27:16.544Z,376
2022-10-25T06:28:16.892Z,383
2022-10-25T06:29:16.592Z,385
2022-10-25T06:30:16.389Z,378
2022-10-25T06:31:16.875Z,374
2022-10-25T06:32:16.570Z,385
2022-10-25T06:33:16.631Z,393
2022-10-25T06:34:16.805Z,387
2022-10-25T06:35:16.634Z,377
2022-10-25T06:36:17.119Z,379
2022-10-25T06:37:16.591Z,384
2022-10-25T06:38:16.627Z,393
2022-10-25T06:39:17.406Z,391
2022-10-25T06:40:16.659Z,381
2022-10-25T06:41:17.705Z,373
2022-10-25T06:43:17.105Z,399
2022-10-25T06:44:17.068Z,394
2022-10-25T06:45:16.407Z,385
2022-10-25T06:46:17.343Z,387
2022-10-25T06:47:24.156Z,391
2022-10-25T06:48:16.581Z,388
2022-10-25T06:49:16.695Z,384
2022-10-25T06:50:16.381Z,379
2022-10-25T06:51:16.497Z,382
2022-10-25T06:52:17.239Z,385
2022-10-25T06:54:16.668Z,377
2022-10-25T06:55:16.976Z,381
2022-10-25T06:56:20.396Z,377
2022-10-25T06:57:16.433Z,379
2022-10-25T06:58:17.371Z,381
2022-10-25T06:59:18.555Z,362
2022-10-25T07:00:17.074Z,370
2022-10-25T07:01:17.960Z,372
2022-10-25T07:02:16.711Z,385
2022-10-25T07:03:17.063Z,348
2022-10-25T07:04:16.426Z,357
2022-10-25T07:05:17.186Z,369
2022-10-25T07:06:18.037Z,375
2022-10-25T07:07:16.962Z,372
2022-10-25T07:08:17.309Z,368
2022-10-25T07:09:17.288Z,370
2022-10-25T07:10:16.899Z,369
2022-10-25T07:11:16.957Z,368
2022-10-25T07:12:17.375Z,358
2022-10-25T07:13:17.553Z,349
2022-10-25T07:14:16.936Z,361
2022-10-25T07:15:16.382Z,363
2022-10-25T07:16:21.706Z,357
2022-10-25T07:17:17.535Z,353
2022-10-25T07:18:16.724Z,355
2022-10-25T07:19:17.247Z,358
2022-10-25T07:20:17.051Z,368
2022-10-25T07:21:17.112Z,370
2022-10-25T07:22:16.994Z,350
2022-10-25T07:23:17.351Z,347
2022-10-25T07:24:16.690Z,344
2022-10-25T07:25:17.000Z,350
2022-10-25T07:26:16.886Z,353
2022-10-25T07:27:17.546Z,356
2022-10-25T07:28:17.805Z,344
2022-10-25T07:29:17.173Z,355
2022-10-25T07:31:17.450Z,362
2022-10-25T07:32:17.352Z,359
2022-10-25T07:33:17.159Z,355
2022-10-25T07:34:17.210Z,351
2022-10-25T07:35:17.882Z,356
2022-10-25T07:36:16.944Z,359
2022-10-25T07:37:16.966Z,353
2022-10-25T07:38:17.356Z,349
2022-10-25T07:39:17.368Z,368
2022-10-25T07:40:16.999Z,326
2022-10-25T07:41:17.221Z,334
2022-10-25T07:42:17.606Z,336
2022-10-25T07:43:17.079Z,341
2022-10-25T07:44:25.139Z,338
2022-10-25T07:45:22.310Z,339
2022-10-25T07:47:17.802Z,334
2022-10-25T07:48:17.341Z,336
2022-10-25T07:49:17.796Z,339
2022-10-25T07:50:17.158Z,342
2022-10-25T07:51:18.371Z,346
2022-10-25T07:52:18.588Z,344
2022-10-25T07:53:21.155Z,353
2022-10-25T07:54:17.917Z,357
2022-10-25T07:55:17.584Z,345
2022-10-25T07:56:28.721Z,344
2022-10-25T07:57:18.175Z,342
2022-10-25T07:58:17.508Z,343
2022-10-25T07:59:17.525Z,352
2022-10-25T08:00:18.664Z,349
2022-10-25T08:01:17.668Z,346
2022-10-25T08:02:17.387Z,351
2022-10-25T08:03:18.496Z,358
2022-10-25T08:04:17.785Z,364
2022-10-25T08:06:17.865Z,359
2022-10-25T08:07:18.706Z,354
2022-10-25T08:08:18.267Z,341
2022-10-25T08:09:37.778Z,335
2022-10-25T08:10:17.289Z,337
2022-10-25T08:11:17.978Z,342
2022-10-25T08:12:21.683Z,353
2022-10-25T08:13:18.021Z,354
2022-10-25T08:14:18.254Z,349
2022-10-25T08:15:17.715Z,346
2022-10-25T08:16:17.290Z,358
2022-10-25T08:17:23.407Z,322
2022-10-25T08:18:18.427Z,333
2022-10-25T08:19:16.901Z,338
2022-10-25T08:20:17.717Z,351
2022-10-25T08:21:17.849Z,354
2022-10-25T08:22:17.252Z,343
2022-10-25T08:23:18.342Z,347
2022-10-25T08:25:17.490Z,345
2022-10-25T08:26:17.862Z,339
2022-10-25T08:27:17.595Z,343
2022-10-25T08:28:17.823Z,349
2022-10-25T08:29:17.843Z,344
2022-10-25T08:30:17.010Z,345
2022-10-25T08:31:18.003Z,337
2022-10-25T08:32:17.287Z,339
2022-10-25T08:33:17.741Z,341
2022-10-25T08:34:17.482Z,348
2022-10-25T08:35:17.204Z,353
2022-10-25T08:36:17.847Z,355
2022-10-25T08:37:17.848Z,347
2022-10-25T08:39:17.977Z,349
2022-10-25T08:40:17.343Z,350
2022-10-25T08:41:17.437Z,347
2022-10-25T08:42:18.965Z,344
2022-10-25T08:43:16.597Z,337
2022-10-25T08:44:18.287Z,342
2022-10-25T08:45:17.405Z,347
2022-10-25T08:46:17.354Z,337
2022-10-25T08:48:18.152Z,334
2022-10-25T08:49:16.601Z,330
2022-10-25T08:50:17.684Z,328
2022-10-25T08:51:17.862Z,330
2022-10-25T08:52:22.375Z,342
2022-10-25T08:53:17.790Z,336
2022-10-25T08:55:18.922Z,330
2022-10-25T08:56:22.172Z,334
2022-10-25T08:57:21.103Z,345
2022-10-25T08:58:18.151Z,343
2022-10-25T08:59:17.482Z,335
2022-10-25T09:00:17.991Z,339
2022-10-25T09:02:18.038Z,338
2022-10-25T09:03:20.942Z,343
2022-10-25T09:04:17.986Z,337
2022-10-25T09:05:22.289Z,328
2022-10-25T09:06:17.353Z,324
2022-10-25T09:07:16.814Z,333
2022-10-25T09:08:17.251Z,342
2022-10-25T09:09:17.803Z,346
2022-10-25T09:10:17.448Z,338
2022-10-25T09:11:18.077Z,343
2022-10-25T09:12:17.786Z,349
2022-10-25T09:13:16.596Z,336
2022-10-25T09:14:17.374Z,326
2022-10-25T09:15:22.586Z,327
2022-10-25T09:16:16.972Z,330
2022-10-25T09:17:17.502Z,340
2022-10-25T09:18:17.371Z,332
2022-10-25T09:19:16.877Z,317
2022-10-25T09:20:17.481Z,321
2022-10-25T09:21:22.957Z,333
2022-10-25T09:22:16.863Z,340
2022-10-25T09:23:17.295Z,331
2022-10-25T09:25:17.417Z,330
2022-10-25T09:26:16.992Z,340
2022-10-25T09:27:17.714Z,322
2022-10-25T09:28:18.477Z,335
2022-10-25T09:29:17.013Z,339
2022-10-25T09:30:18.630Z,331
2022-10-25T09:31:17.009Z,332
2022-10-25T09:32:18.508Z,339
2022-10-25T09:34:16.787Z,336
2022-10-25T09:35:17.349Z,338
2022-10-25T09:36:17.202Z,335
2022-10-25T09:37:16.840Z,332
2022-10-25T09:38:17.757Z,327
2022-10-25T09:39:22.361Z,325
2022-10-25T09:40:17.010Z,323
2022-10-25T09:41:16.674Z,326
2022-10-25T09:42:17.161Z,336
2022-10-25T09:43:16.626Z,348
2022-10-25T09:44:16.063Z,339
2022-10-25T09:45:16.751Z,327
2022-10-25T09:46:17.088Z,338
2022-10-25T09:47:16.036Z,342
2022-10-25T09:48:17.607Z,340
2022-10-25T09:49:16.689Z,338
2022-10-25T09:50:18.156Z,348
2022-10-25T09:51:16.443Z,339
2022-10-25T09:52:16.540Z,330
2022-10-25T09:54:16.646Z,335
2022-10-25T09:55:16.925Z,338
2022-10-25T09:56:16.560Z,327
2022-10-25T09:57:16.287Z,324
2022-10-25T09:58:16.953Z,325
2022-10-25T09:59:16.776Z,328
2022-10-25T10:00:16.220Z,334
2022-10-25T10:01:17.387Z,332
2022-10-25T10:02:17.149Z,342
2022-10-25T10:03:16.396Z,338
2022-10-25T10:04:17.330Z,337
2022-10-25T10:05:16.651Z,339
2022-10-25T10:06:16.550Z,335
2022-10-25T10:07:17.344Z,334
2022-10-25T10:08:16.905Z,333
2022-10-25T10:09:16.714Z,335
2022-10-25T10:10:16.980Z,338
2022-10-25T10:11:16.715Z,335
2022-10-25T10:12:16.220Z,338
2022-10-25T10:13:16.736Z,341
2022-10-25T10:14:16.446Z,332
2022-10-25T10:15:17.134Z,334
2022-10-25T10:17:16.495Z,332
2022-10-25T10:18:17.429Z,324
2022-10-25T10:19:16.646Z,333
2022-10-25T10:20:16.750Z,332
2022-10-25T10:21:17.334Z,329
2022-10-25T10:22:17.193Z,326
2022-10-25T10:23:17.249Z,339
2022-10-25T10:24:17.850Z,341
2022-10-25T10:25:17.181Z,331
2022-10-25T10:26:16.998Z,335
2022-10-25T10:27:17.753Z,328
2022-10-25T10:28:16.946Z,334
2022-10-25T10:29:23.487Z,326
2022-10-25T10:30:17.142Z,331
2022-10-25T10:31:17.181Z,336
2022-10-25T10:32:16.869Z,347
2022-10-25T10:33:17.401Z,349
2022-10-25T10:34:16.891Z,344
2022-10-25T10:35:17.288Z,354
2022-10-25T10:36:18.174Z,325
2022-10-25T10:37:16.876Z,321
2022-10-25T10:38:17.157Z,318
2022-10-25T10:39:17.657Z,324
2022-10-25T10:40:17.424Z,327
2022-10-25T10:41:17.013Z,326
2022-10-25T10:42:20.465Z,334
2022-10-25T10:43:17.241Z,343
2022-10-25T10:44:17.075Z,331
2022-10-25T10:45:17.114Z,330
2022-10-25T10:46:17.509Z,335
2022-10-25T10:47:18.044Z,337
2022-10-25T10:48:17.310Z,334
2022-10-25T10:50:18.023Z,336
2022-10-25T10:51:44.625Z,338
2022-10-25T10:52:17.765Z,344
2022-10-25T10:53:17.651Z,325
2022-10-25T10:54:17.276Z,335
2022-10-25T10:55:17.267Z,331
2022-10-25T10:58:16.832Z,330
2022-10-25T10:59:17.734Z,335
2022-10-25T11:00:17.984Z,343
2022-10-25T11:01:17.611Z,346
2022-10-25T11:02:18.045Z,335
2022-10-25T11:03:18.861Z,319
2022-10-25T11:04:17.101Z,320
2022-10-25T11:05:17.726Z,324
2022-10-25T11:06:17.379Z,328
2022-10-25T11:07:17.873Z,334
2022-10-25T11:08:17.888Z,344
2022-10-25T11:09:18.104Z,319
2022-10-25T11:10:17.328Z,329
2022-10-25T11:11:17.550Z,334
2022-10-25T11:12:17.439Z,333
2022-10-25T11:13:17.807Z,323
2022-10-25T11:14:17.793Z,331
2022-10-25T11:15:17.860Z,320
2022-10-25T11:16:17.631Z,328
2022-10-25T11:17:18.419Z,338
2022-10-25T11:18:17.638Z,347
2022-10-25T11:19:17.530Z,343
2022-10-25T11:20:17.622Z,335
2022-10-25T11:21:17.726Z,348
2022-10-25T11:22:20.461Z,353
2022-10-25T11:23:17.680Z,349
2022-10-25T11:24:17.464Z,342
2022-10-25T11:26:17.997Z,336
2022-10-25T11:27:17.304Z,337
2022-10-25T11:28:18.550Z,342
2022-10-25T11:29:17.630Z,335
2022-10-25T11:30:17.172Z,333
2022-10-25T11:31:18.481Z,332
2022-10-25T11:32:17.774Z,333
2022-10-25T11:33:17.017Z,338
2022-10-25T11:34:19.282Z,333
2022-10-25T11:35:17.317Z,340
2022-10-25T11:36:17.316Z,354
2022-10-25T11:37:18.220Z,340
2022-10-25T11:38:17.852Z,344
2022-10-25T11:39:17.496Z,339
2022-10-25T11:40:17.435Z,330
2022-10-25T11:41:18.966Z,329
2022-10-25T11:42:16.990Z,304
2022-10-25T11:43:18.038Z,372
2022-10-25T11:44:17.842Z,349
2022-10-25T11:45:17.168Z,334
2022-10-25T11:46:17.666Z,328
2022-10-25T11:47:17.720Z,325
2022-10-25T11:48:17.370Z,326
2022-10-25T11:49:17.637Z,327
2022-10-25T11:51:17.991Z,332
2022-10-25T11:52:17.978Z,335
2022-10-25T11:53:17.865Z,338
2022-10-25T11:54:19.020Z,339
2022-10-25T11:55:17.829Z,334
2022-10-25T11:56:18.109Z,343
2022-10-25T11:57:18.561Z,342
2022-10-25T11:58:17.338Z,344
2022-10-25T11:59:18.593Z,350
2022-10-25T12:00:18.009Z,342
2022-10-25T12:01:17.720Z,338
2022-10-25T12:02:18.321Z,329
2022-10-25T12:03:18.273Z,332
2022-10-25T12:04:17.338Z,336
2022-10-25T12:05:16.886Z,340
2022-10-25T12:06:17.809Z,335
2022-10-25T12:07:17.578Z,326
2022-10-25T12:08:18.614Z,315
2022-10-25T12:09:17.928Z,316
2022-10-25T12:10:17.215Z,320
2022-10-25T12:11:21.452Z,329
2022-10-25T12:12:18.087Z,340
2022-10-25T12:13:16.799Z,329
2022-10-25T12:14:22.324Z,325
2022-10-25T12:15:18.104Z,346
2022-10-25T12:16:21.621Z,313
2022-10-25T12:17:17.959Z,319
2022-10-25T12:18:26.064Z,335
2022-10-25T12:19:17.324Z,343
2022-10-25T12:20:17.332Z,349
2022-10-25T12:21:17.350Z,333
2022-10-25T12:22:17.466Z,330
2022-10-25T12:23:17.892Z,327
2022-10-25T12:24:17.050Z,325
2022-10-25T12:25:17.684Z,323
2022-10-25T12:26:22.033Z,325
2022-10-25T12:27:17.380Z,324
2022-10-25T12:28:22.477Z,326
2022-10-25T12:29:16.868Z,331
2022-10-25T12:30:17.509Z,344
2022-10-25T12:31:17.551Z,312
2022-10-25T12:32:21.734Z,384
2022-10-25T12:33:16.253Z,321
2022-10-25T12:34:17.626Z,325
2022-10-25T12:35:16.755Z,332
2022-10-25T12:37:16.975Z,333
2022-10-25T12:38:21.290Z,334
2022-10-25T12:39:17.321Z,335
2022-10-25T12:40:17.187Z,333
2022-10-25T12:41:17.044Z,330
2022-10-25T12:42:17.131Z,337
2022-10-25T12:43:22.853Z,335
2022-10-25T12:44:17.548Z,328
2022-10-25T12:45:17.025Z,333
2022-10-25T12:46:16.594Z,340
2022-10-25T12:47:17.642Z,344
2022-10-25T12:48:16.969Z,352
2022-10-25T12:49:16.935Z,333
2022-10-25T12:51:21.991Z,332
2022-10-25T12:52:16.609Z,323
2022-10-25T12:53:17.416Z,335
2022-10-25T12:54:17.313Z,344
2022-10-25T12:55:16.550Z,335
2022-10-25T12:56:17.049Z,338
2022-10-25T12:58:16.761Z,340
2022-10-25T12:59:22.503Z,350
2022-10-25T13:00:16.617Z,345
2022-10-25T13:01:17.226Z,342
2022-10-25T13:02:17.330Z,343
2022-10-25T13:03:19.780Z,340
2022-10-25T13:04:16.133Z,339
2022-10-25T13:05:16.973Z,336
2022-10-25T13:06:16.516Z,347
2022-10-25T13:07:16.058Z,355
2022-10-25T13:08:16.926Z,353
2022-10-25T13:09:16.718Z,347
2022-10-25T13:10:15.133Z,341
2022-10-25T13:11:17.211Z,340
2022-10-25T13:12:16.901Z,344
2022-10-25T13:13:16.233Z,351
2022-10-25T13:14:18.624Z,347
2022-10-25T13:15:16.495Z,343
2022-10-25T13:16:16.497Z,336
2022-10-25T13:17:16.682Z,334
2022-10-25T13:18:20.030Z,337
2022-10-25T13:19:25.746Z,338
2022-10-25T13:21:16.904Z,322
2022-10-25T13:22:17.825Z,336
2022-10-25T13:23:17.323Z,344
2022-10-25T13:24:16.416Z,348
2022-10-25T13:25:23.571Z,346
2022-10-25T13:26:17.022Z,345
2022-10-25T13:27:22.465Z,342
2022-10-25T13:28:16.724Z,332
2022-10-25T13:29:17.474Z,327
2022-10-25T13:31:17.628Z,325
2022-10-25T13:32:17.160Z,336
2022-10-25T13:33:16.755Z,351
2022-10-25T13:34:17.383Z,340
2022-10-25T13:35:16.980Z,341
2022-10-25T13:36:16.574Z,314
2022-10-25T13:37:17.205Z,375
2022-10-25T13:38:16.395Z,360
2022-10-25T13:39:17.808Z,339
2022-10-25T13:41:17.125Z,337
2022-10-25T13:42:17.852Z,330
2022-10-25T13:43:17.225Z,329
2022-10-25T13:44:16.727Z,335
2022-10-25T13:45:17.841Z,343
2022-10-25T13:46:17.783Z,341
2022-10-25T13:47:16.502Z,326
2022-10-25T13:48:17.239Z,334
2022-10-25T13:49:16.996Z,339
2022-10-25T13:51:20.670Z,340
2022-10-25T13:52:17.241Z,335
2022-10-25T13:53:17.696Z,345
2022-10-25T13:54:17.442Z,333
2022-10-25T13:55:17.169Z,330
2022-10-25T13:56:17.628Z,331
2022-10-25T13:57:16.960Z,342
2022-10-25T13:59:17.334Z,332
2022-10-25T14:00:17.608Z,338
2022-10-25T14:01:17.195Z,336
2022-10-25T14:02:17.629Z,329
2022-10-25T14:03:17.619Z,328
2022-10-25T14:04:17.196Z,331
2022-10-25T14:05:17.446Z,337
2022-10-25T14:06:24.158Z,341
2022-10-25T14:07:17.191Z,344
2022-10-25T14:08:17.563Z,355
2022-10-25T14:09:17.314Z,315
2022-10-25T14:11:17.584Z,347
2022-10-25T14:12:20.411Z,346
2022-10-25T14:13:18.148Z,347
2022-10-25T14:14:17.877Z,353
2022-10-25T14:16:17.664Z,350
2022-10-25T14:17:18.668Z,341
2022-10-25T14:18:18.309Z,340
2022-10-25T14:19:18.336Z,337
2022-10-25T14:20:21.125Z,340
2022-10-25T14:21:17.162Z,331
2022-10-25T14:22:18.038Z,335
2022-10-25T14:23:17.575Z,329
2022-10-25T14:24:17.796Z,334
2022-10-25T14:25:17.859Z,325
2022-10-25T14:26:18.003Z,322
2022-10-25T14:27:17.398Z,324
2022-10-25T14:28:17.413Z,332
2022-10-25T14:29:18.372Z,333
2022-10-25T14:30:17.747Z,332
2022-10-25T14:31:17.496Z,335
2022-10-25T14:32:18.195Z,337
2022-10-25T14:33:17.359Z,348
2022-10-25T14:34:17.995Z,350
2022-10-25T14:35:17.572Z,340
2022-10-25T14:36:16.838Z,332